Time;durP1;ratioP1;P1;durP2;ratioP2;P2;SDS_P1;SDS_P2;PMS_P1;PMS_P2;Temp;Humidity;BMP_temperature;BMP_pressure;BME280_temperature;BME280_humidity;BME280_pressure;Samples;Min_cycle;Max_cycle;Signal;HPM_P1;HPM_P2
2022/04/01 00:00:39;;;;;;;1.50;1.30;;;;;;;0.19;95.10;94673.51;108100;1270;27099;-73
2022/04/01 00:03:10;;;;;;;1.30;1.10;;;;;;;0.18;94.77;94674.76;108064;1271;38512;-73
2022/04/01 00:05:42;;;;;;;1.10;1.00;;;;;;;0.18;94.74;94674.55;108077;1271;45644;-73
2022/04/01 00:08:12;;;;;;;1.00;0.90;;;;;;;0.18;95.12;94676.02;108031;1271;37897;-74
2022/04/01 00:10:43;;;;;;;1.30;1.20;;;;;;;0.19;94.80;94672.63;107999;1271;48726;-73
2022/04/01 00:13:14;;;;;;;2.90;1.80;;;;;;;0.19;95.21;94682.15;108154;1271;30167;-73
2022/04/01 00:15:45;;;;;;;2.50;1.50;;;;;;;0.16;94.87;94677.77;108053;1271;41034;-73
2022/04/01 00:18:16;;;;;;;1.30;1.20;;;;;;;0.14;94.85;94672.66;108064;1271;40192;-73
2022/04/01 00:20:47;;;;;;;3.00;1.50;;;;;;;0.12;94.89;94678.64;107987;1271;44336;-73
2022/04/01 00:23:18;;;;;;;2.20;1.50;;;;;;;0.12;95.03;94668.70;108014;1271;30883;-73
2022/04/01 00:25:49;;;;;;;1.70;1.40;;;;;;;0.15;95.14;94666.27;108113;1271;37413;-73
2022/04/01 00:28:20;;;;;;;2.40;1.60;;;;;;;0.14;94.82;94664.11;108091;1270;28058;-73
2022/04/01 00:30:50;;;;;;;2.30;1.60;;;;;;;0.12;95.01;94658.80;108037;1270;46403;-73
2022/04/01 00:33:21;;;;;;;2.40;1.60;;;;;;;0.09;94.99;94656.45;108052;1271;30945;-73
2022/04/01 00:35:52;;;;;;;2.70;1.70;;;;;;;0.09;94.85;94657.02;107693;1271;440184;-73
2022/04/01 00:38:23;;;;;;;1.60;1.50;;;;;;;0.08;94.77;94656.40;108000;1271;43674;-73
2022/04/01 00:40:54;;;;;;;2.30;1.70;;;;;;;0.06;95.22;94655.26;107983;1271;42689;-73
2022/04/01 00:43:32;;;;;;;2.60;1.60;;;;;;;0.06;95.04;94660.20;107903;1274;44742;-73
2022/04/01 00:46:04;;;;;;;1.90;1.50;;;;;;;0.06;95.10;94665.21;108096;1270;41007;-73
2022/04/01 00:48:35;;;;;;;1.80;1.50;;;;;;;0.06;95.17;94662.14;108038;1271;32233;-73
2022/04/01 00:51:06;;;;;;;1.70;1.10;;;;;;;0.05;95.21;94663.48;108021;1271;43888;-73
2022/04/01 00:53:38;;;;;;;2.50;1.50;;;;;;;0.03;95.29;94664.85;108034;1271;34871;-73
2022/04/01 00:56:09;;;;;;;2.00;1.60;;;;;;;0.03;95.40;94664.75;108087;1268;41495;-73
2022/04/01 00:58:40;;;;;;;1.80;1.50;;;;;;;0.04;95.50;94658.44;108113;1270;33739;-73
2022/04/01 01:01:11;;;;;;;1.90;1.40;;;;;;;0.04;95.25;94657.20;108055;1270;41444;-73
2022/04/01 01:03:42;;;;;;;2.20;1.60;;;;;;;0.03;95.65;94655.58;108040;1271;43049;-73
2022/04/01 01:06:14;;;;;;;1.90;1.50;;;;;;;0.04;95.56;94652.09;108052;1271;31227;-74
2022/04/01 01:08:45;;;;;;;1.30;1.20;;;;;;;0.05;95.50;94652.96;108120;1270;36274;-73
2022/04/01 01:11:16;;;;;;;2.40;1.60;;;;;;;0.04;95.46;94653.54;108037;1271;42177;-73
2022/04/01 01:13:47;;;;;;;2.00;1.50;;;;;;;0.05;95.75;94653.44;108051;1271;42331;-73
2022/04/01 01:16:19;;;;;;;1.80;1.40;;;;;;;0.04;95.44;94648.33;107942;1271;41646;-73
2022/04/01 01:19:01;;;;;;;2.70;1.50;;;;;;;0.03;95.48;94643.59;108010;1270;45110;-73
2022/04/01 01:21:32;;;;;;;2.80;2.00;;;;;;;0.01;95.39;94645.48;108020;1270;29495;-73
2022/04/01 01:24:06;;;;;;;2.20;1.70;;;;;;;0.03;95.66;94643.70;108043;1271;42779;-73
2022/04/01 01:26:38;;;;;;;2.00;1.70;;;;;;;0.02;95.54;94643.23;108004;1271;39138;-73
2022/04/01 01:29:09;;;;;;;2.60;1.80;;;;;;;0.02;95.86;94640.00;108082;1271;45071;-73
2022/04/01 01:31:40;;;;;;;2.40;1.70;;;;;;;0.02;96.00;94637.50;108077;1270;33081;-73
2022/04/01 01:34:11;;;;;;;2.90;2.30;;;;;;;0.00;96.00;94640.93;108070;1270;42861;-73
2022/04/01 01:36:42;;;;;;;1.40;1.30;;;;;;;0.01;95.85;94644.90;108011;1270;43128;-75
2022/04/01 01:39:13;;;;;;;2.50;1.60;;;;;;;0.01;95.85;94638.96;108018;1271;34943;-74
2022/04/01 01:41:45;;;;;;;2.20;1.80;;;;;;;0.02;95.61;94636.83;108049;1270;29441;-74
2022/04/01 01:44:17;;;;;;;2.60;1.80;;;;;;;0.01;95.92;94634.05;108047;1270;40321;-74
2022/04/01 01:46:48;;;;;;;2.20;1.80;;;;;;;0.01;96.03;94627.04;108034;1270;33464;-73
2022/04/01 01:49:21;;;;;;;2.10;1.80;;;;;;;0.02;95.83;94627.55;107919;1273;33659;-73
2022/04/01 01:54:49;;;;;;;3.10;2.60;;;;;;;0.02;95.98;94627.29;108075;1270;39269;-73
2022/04/01 01:57:22;;;;;;;3.50;2.20;;;;;;;0.02;96.11;94630.73;108041;1270;30682;-73
2022/04/01 01:59:55;;;;;;;3.10;2.00;;;;;;;0.01;95.91;94628.16;107912;1272;36043;-74
2022/04/01 02:02:26;;;;;;;2.70;2.00;;;;;;;0.01;95.83;94627.70;108038;1270;44013;-74
2022/04/01 02:04:57;;;;;;;1.90;1.80;;;;;;;0.01;95.92;94628.96;108066;1270;33865;-73
2022/04/01 02:07:28;;;;;;;3.70;2.20;;;;;;;0.01;95.70;94625.73;108007;1270;40497;-73
2022/04/01 02:09:59;;;;;;;3.10;2.20;;;;;;;0.02;96.02;94621.25;108059;1270;33599;-73
2022/04/01 02:12:30;;;;;;;2.40;2.10;;;;;;;0.04;96.01;94620.73;108108;1270;34449;-74
2022/04/01 02:15:02;;;;;;;3.30;2.20;;;;;;;0.03;96.06;94613.59;108069;1270;33375;-74
2022/04/01 02:17:33;;;;;;;2.70;2.10;;;;;;;0.03;95.88;94611.82;107968;1270;40196;-73
2022/04/01 02:20:09;;;;;;;4.00;2.20;;;;;;;0.03;96.06;94614.05;107943;1272;36400;-73
2022/04/01 02:22:40;;;;;;;3.40;2.00;;;;;;;0.01;95.93;94610.77;108138;1270;29275;-73
2022/04/01 02:25:12;;;;;;;2.60;2.10;;;;;;;0.02;96.06;94616.92;108115;1270;51635;-74
2022/04/01 02:27:43;;;;;;;2.20;1.70;;;;;;;0.03;96.14;94619.31;108020;1270;39704;-74
2022/04/01 02:30:14;;;;;;;1.90;1.50;;;;;;;0.03;96.14;94623.59;108087;1270;34874;-73
2022/04/01 02:32:45;;;;;;;1.90;1.50;;;;;;;0.01;95.86;94620.42;108111;1270;37816;-73
2022/04/01 02:35:16;;;;;;;1.90;1.50;;;;;;;0.01;95.97;94618.64;108064;1270;42903;-73
2022/04/01 02:37:47;;;;;;;2.10;1.40;;;;;;;0.04;96.03;94621.82;107879;1273;45109;-74
2022/04/01 02:40:19;;;;;;;1.60;1.50;;;;;;;0.06;96.09;94622.07;108043;1270;40389;-74
2022/04/01 02:42:53;;;;;;;2.60;1.70;;;;;;;0.09;96.23;94625.30;108005;1270;41591;-74
2022/04/01 02:45:25;;;;;;;2.60;1.80;;;;;;;0.11;96.34;94624.20;108105;1270;33001;-73
2022/04/01 02:47:59;;;;;;;1.60;1.50;;;;;;;0.12;96.22;94620.86;108026;1270;40108;-74
2022/04/01 02:50:30;;;;;;;2.60;1.50;;;;;;;0.12;96.13;94617.05;108047;1270;44189;-73
2022/04/01 02:53:01;;;;;;;1.80;1.40;;;;;;;0.10;96.09;94611.59;108010;1269;44468;-73
2022/04/01 02:55:32;;;;;;;2.10;1.40;;;;;;;0.13;96.19;94608.77;108094;1270;33005;-74
2022/04/01 02:58:02;;;;;;;1.50;1.40;;;;;;;0.13;95.88;94606.17;107995;1270;30986;-73
2022/04/01 03:00:35;;;;;;;1.80;1.10;;;;;;;0.11;95.99;94608.20;108069;1270;40131;-73
2022/04/01 03:03:08;;;;;;;1.90;1.40;;;;;;;0.10;95.77;94607.69;108129;1270;42135;-74
2022/04/01 03:05:42;;;;;;;1.20;1.10;;;;;;;0.12;96.16;94607.73;108160;1270;42370;-74
2022/04/01 03:08:14;;;;;;;1.80;1.30;;;;;;;0.15;96.21;94609.30;108044;1270;45205;-74
2022/04/01 03:10:45;;;;;;;1.60;1.30;;;;;;;0.15;96.07;94603.11;108010;1270;41239;-74
2022/04/01 03:13:16;;;;;;;1.40;1.30;;;;;;;0.15;95.97;94605.67;108119;1270;31906;-74
2022/04/01 03:15:48;;;;;;;1.70;1.50;;;;;;;0.13;96.02;94604.60;107921;1271;66998;-74
2022/04/01 03:18:19;;;;;;;1.90;1.60;;;;;;;0.12;95.85;94606.42;108083;1269;37464;-74
2022/04/01 03:20:49;;;;;;;1.30;1.20;;;;;;;0.12;95.88;94601.68;108106;1270;42020;-73
2022/04/01 03:23:21;;;;;;;2.20;1.70;;;;;;;0.12;95.87;94596.78;108042;1270;39340;-74
2022/04/01 03:25:53;;;;;;;2.30;1.70;;;;;;;0.12;96.02;94596.27;107935;1271;32772;-74
2022/04/01 03:28:24;;;;;;;2.00;1.50;;;;;;;0.13;95.97;94599.13;108083;1270;41104;-73
2022/04/01 03:30:56;;;;;;;2.00;1.70;;;;;;;0.12;95.98;94607.99;108063;1269;47755;-74
2022/04/01 03:33:27;;;;;;;2.20;1.60;;;;;;;0.10;95.64;94606.64;107913;1273;37855;-74
2022/04/01 03:35:58;;;;;;;1.90;1.70;;;;;;;0.11;95.91;94602.58;108039;1269;42267;-73
2022/04/01 03:38:30;;;;;;;2.40;1.70;;;;;;;0.09;96.03;94608.36;108056;1270;29641;-74
2022/04/01 03:41:05;;;;;;;2.00;1.80;;;;;;;0.08;95.92;94604.30;108037;1270;31605;-74
2022/04/01 03:43:40;;;;;;;2.60;1.80;;;;;;;0.09;95.84;94600.81;107995;1270;45436;-73
2022/04/01 03:46:13;;;;;;;1.90;1.70;;;;;;;0.07;95.88;94594.45;108063;1270;42429;-73
2022/04/01 03:48:47;;;;;;;2.10;1.80;;;;;;;0.05;95.91;94598.52;108053;1270;28986;-74
2022/04/01 03:51:24;;;;;;;2.30;1.80;;;;;;;0.03;95.93;94601.34;108056;1270;49198;-74
2022/04/01 03:54:00;;;;;;;3.30;2.40;;;;;;;0.05;95.80;94599.26;107997;1270;42158;-73
2022/04/01 03:56:36;;;;;;;3.00;2.50;;;;;;;0.03;95.78;94596.34;108106;1268;44032;-74
2022/04/01 03:59:08;;;;;;;2.90;2.50;;;;;;;0.01;95.91;94595.52;108123;1270;36471;-74
2022/04/01 04:01:40;;;;;;;5.00;2.80;;;;;;;0.01;95.78;94595.61;108130;1270;32012;-74
2022/04/01 04:04:13;;;;;;;3.00;2.70;;;;;;;0.01;96.25;94594.05;108119;1270;50588;-74
2022/04/01 04:06:45;;;;;;;4.20;3.20;;;;;;;0.03;96.22;94593.27;108070;1270;35627;-74
2022/04/01 04:09:18;;;;;;;3.80;2.90;;;;;;;0.04;96.12;94590.30;108097;1270;42967;-74
2022/04/01 04:11:50;;;;;;;3.90;2.60;;;;;;;0.04;96.37;94591.96;108028;1270;44419;-74
2022/04/01 04:14:26;;;;;;;5.20;3.40;;;;;;;0.03;96.48;94590.61;108047;1270;29997;-74
2022/04/01 04:17:01;;;;;;;3.10;2.80;;;;;;;0.03;96.33;94592.27;108017;1270;40942;-74
2022/04/01 04:19:41;;;;;;;3.30;2.70;;;;;;;0.03;96.45;94597.48;108022;1270;34183;-74
2022/04/01 04:22:15;;;;;;;1.80;1.60;;;;;;;0.03;96.37;94592.42;108135;1270;41854;-74
2022/04/01 04:24:50;;;;;;;2.10;1.90;;;;;;;0.01;96.38;94597.23;108134;1270;40077;-74
2022/04/01 04:27:27;;;;;;;3.40;2.40;;;;;;;0.03;96.13;94603.85;108067;1268;29434;-74
2022/04/01 04:30:03;;;;;;;3.00;2.30;;;;;;;0.03;96.26;94603.80;108087;1270;32277;-74
2022/04/01 04:32:39;;;;;;;2.40;2.10;;;;;;;0.01;96.07;94597.75;108096;1270;42285;-74
2022/04/01 04:35:12;;;;;;;3.60;2.40;;;;;;;0.01;96.38;94586.91;108114;1269;38913;-74
2022/04/01 04:37:46;;;;;;;2.90;2.40;;;;;;;-0.01;96.26;94584.45;108102;1270;40544;-74
2022/04/01 04:40:19;;;;;;;4.00;2.70;;;;;;;-0.00;96.39;94589.98;108083;1270;37640;-74
2022/04/01 04:42:51;;;;;;;4.10;2.80;;;;;;;0.00;96.74;94596.19;108075;1270;44838;-74
2022/04/01 04:45:24;;;;;;;2.60;2.20;;;;;;;-0.02;96.39;94599.19;108138;1270;31987;-74
2022/04/01 04:47:55;;;;;;;3.90;2.60;;;;;;;-0.03;96.54;94603.52;108032;1270;41867;-74
2022/04/01 04:50:26;;;;;;;4.20;3.20;;;;;;;-0.03;96.53;94606.07;108079;1270;42410;-74
2022/04/01 04:52:58;;;;;;;4.70;2.70;;;;;;;-0.01;96.24;94603.47;108069;1270;29818;-74
2022/04/01 04:55:30;;;;;;;4.50;3.10;;;;;;;-0.02;96.45;94593.30;108064;1270;48473;-74
2022/04/01 04:58:02;;;;;;;2.60;2.30;;;;;;;-0.02;96.52;94598.83;108083;1270;41690;-74
2022/04/01 05:00:33;;;;;;;3.30;2.60;;;;;;;-0.02;96.42;94597.36;108106;1269;29727;-74
2022/04/01 05:03:25;;;;;;;3.20;2.60;;;;;;;-0.01;96.66;94600.29;108136;1270;29739;-74
2022/04/01 05:06:01;;;;;;;3.20;2.60;;;;;;;-0.01;96.50;94604.04;108053;1270;39916;-74
2022/04/01 05:08:48;;;;;;;4.10;2.50;;;;;;;0.01;96.45;94604.77;107991;1272;34933;-74
2022/04/01 05:11:30;;;;;;;3.20;2.80;;;;;;;0.01;96.56;94603.27;108063;1270;40823;-74
2022/04/01 05:14:11;;;;;;;3.40;2.90;;;;;;;0.02;96.43;94607.85;108130;1270;32669;-74
2022/04/01 05:16:53;;;;;;;3.10;2.50;;;;;;;0.04;96.63;94613.85;108170;1270;44276;-74
2022/04/01 05:19:28;;;;;;;2.50;2.20;;;;;;;0.04;96.46;94611.55;108144;1270;43366;-74
2022/04/01 05:22:03;;;;;;;3.50;2.60;;;;;;;0.03;96.58;94616.86;108068;1270;40096;-74
2022/04/01 05:24:42;;;;;;;4.50;3.20;;;;;;;0.05;96.73;94615.45;108073;1270;31318;-74
2022/04/01 05:27:20;;;;;;;2.40;1.90;;;;;;;0.06;96.73;94616.71;108128;1270;36091;-75
2022/04/01 05:29:59;;;;;;;2.70;2.10;;;;;;;0.09;96.69;94619.88;108146;1269;36964;-74
2022/04/01 05:32:33;;;;;;;7.50;5.00;;;;;;;0.10;96.65;94624.30;108098;1270;41593;-74
2022/04/01 05:35:06;;;;;;;21.10;10.70;;;;;;;0.10;96.47;94627.84;108092;1270;37544;-74
2022/04/01 05:37:37;;;;;;;12.10;7.20;;;;;;;0.12;96.73;94629.41;108073;1270;43326;-74
2022/04/01 05:40:11;;;;;;;5.80;3.80;;;;;;;0.15;96.64;94626.98;108111;1270;43116;-74
2022/04/01 05:42:43;;;;;;;2.90;2.30;;;;;;;0.15;96.49;94626.30;108163;1270;32644;-74
2022/04/01 05:45:15;;;;;;;3.80;2.90;;;;;;;0.14;96.47;94629.09;108074;1270;32235;-74
2022/04/01 05:47:47;;;;;;;2.90;2.10;;;;;;;0.15;96.60;94629.38;108009;1270;43917;-74
2022/04/01 05:50:20;;;;;;;2.00;1.70;;;;;;;0.16;96.34;94634.73;108037;1270;33520;-74
2022/04/01 05:52:53;;;;;;;1.90;1.50;;;;;;;0.19;96.40;94638.44;108000;1271;32431;-74
2022/04/01 05:55:27;;;;;;;30.40;10.00;;;;;;;0.21;96.65;94640.30;108082;1270;32072;-74
2022/04/01 05:57:59;;;;;;;29.30;13.10;;;;;;;0.24;96.73;94639.41;108105;1270;35164;-74
2022/04/01 06:00:34;;;;;;;7.70;4.40;;;;;;;0.27;96.41;94644.10;108138;1270;31609;-74
2022/04/01 06:03:32;;;;;;;5.20;3.20;;;;;;;0.27;96.19;94644.61;108086;1270;40306;-74
2022/04/01 06:06:10;;;;;;;3.20;2.20;;;;;;;0.32;96.09;94644.27;108105;1270;41622;-74
2022/04/01 06:08:58;;;;;;;2.00;1.80;;;;;;;0.35;96.25;94643.06;108057;1270;41865;-74
2022/04/01 06:11:42;;;;;;;2.80;2.50;;;;;;;0.34;96.13;94640.04;108040;1270;42446;-74
2022/04/01 06:14:28;;;;;;;3.20;1.90;;;;;;;0.31;95.93;94636.09;108013;1271;34038;-74
2022/04/01 06:17:06;;;;;;;2.00;1.60;;;;;;;0.30;96.06;94641.40;108031;1270;30898;-74
2022/04/01 06:19:44;;;;;;;1.70;1.30;;;;;;;0.31;95.91;94643.75;108109;1269;42122;-74
2022/04/01 06:22:18;;;;;;;1.70;1.40;;;;;;;0.31;95.67;94649.12;108058;1270;42275;-74
2022/04/01 06:25:00;;;;;;;1.90;1.70;;;;;;;0.28;95.62;94653.70;108076;1270;32185;-74
2022/04/01 06:27:40;;;;;;;1.30;1.20;;;;;;;0.29;95.82;94658.55;108023;1270;42632;-74
2022/04/01 06:30:14;;;;;;;1.70;1.20;;;;;;;0.31;95.76;94658.09;108181;1270;36430;-74
2022/04/01 06:32:54;;;;;;;2.60;2.40;;;;;;;0.33;95.67;94659.48;108151;1270;33141;-74
2022/04/01 06:35:29;;;;;;;4.00;2.80;;;;;;;0.36;95.47;94656.35;108033;1270;43002;-74
2022/04/01 06:38:04;;;;;;;3.00;1.90;;;;;;;0.39;95.75;94655.56;108099;1270;41758;-75
2022/04/01 06:40:43;;;;;;;2.70;2.50;;;;;;;0.41;95.60;94655.35;107999;1270;45965;-74
2022/04/01 06:43:14;;;;;;;3.80;3.00;;;;;;;0.44;95.55;94656.20;108060;1270;41445;-74
2022/04/01 06:45:45;;;;;;;4.60;3.70;;;;;;;0.46;95.60;94654.73;108019;1270;32142;-75
2022/04/01 06:48:16;;;;;;;2.50;2.00;;;;;;;0.47;95.28;94655.15;108052;1270;44178;-75
2022/04/01 06:50:49;;;;;;;2.50;2.30;;;;;;;0.47;95.22;94657.02;108055;1270;42698;-74
2022/04/01 06:53:21;;;;;;;1.90;1.70;;;;;;;0.49;95.33;94654.77;108095;1270;37742;-74
2022/04/01 06:55:53;;;;;;;2.00;1.70;;;;;;;0.50;95.33;94656.65;108132;1268;40437;-74
2022/04/01 06:58:29;;;;;;;2.20;1.60;;;;;;;0.56;95.08;94653.78;108013;1268;42827;-74
2022/04/01 07:01:01;;;;;;;1.70;1.50;;;;;;;0.58;95.16;94650.96;108049;1270;42974;-74
2022/04/01 07:03:33;;;;;;;2.20;1.50;;;;;;;0.62;95.05;94652.95;108060;1270;44471;-74
2022/04/01 07:06:05;;;;;;;1.70;1.60;;;;;;;0.68;95.12;94648.74;108080;1270;29757;-74
2022/04/01 07:08:36;;;;;;;1.80;1.40;;;;;;;0.71;94.88;94649.59;108078;1270;44553;-75
2022/04/01 07:11:08;;;;;;;2.00;1.80;;;;;;;0.77;94.77;94653.38;108108;1270;43195;-74
2022/04/01 07:13:39;;;;;;;1.40;1.30;;;;;;;0.84;94.74;94651.42;108179;1270;42462;-75
2022/04/01 07:16:10;;;;;;;1.90;1.40;;;;;;;0.90;94.83;94652.36;108100;1269;47373;-74
2022/04/01 07:18:41;;;;;;;1.10;1.00;;;;;;;0.98;94.70;94649.83;108216;1270;33848;-75
2022/04/01 07:21:13;;;;;;;1.30;1.20;;;;;;;1.05;94.82;94649.13;108142;1268;43199;-75
2022/04/01 07:23:43;;;;;;;2.10;1.40;;;;;;;1.13;94.61;94649.20;108045;1270;39553;-75
2022/04/01 07:26:14;;;;;;;1.20;1.10;;;;;;;1.20;94.36;94645.46;108129;1270;47438;-75
2022/04/01 07:28:46;;;;;;;1.50;1.30;;;;;;;1.24;94.20;94647.13;108131;1270;29655;-76
2022/04/01 07:34:05;;;;;;;1.20;1.00;;;;;;;1.33;93.79;94643.45;108023;1270;43120;-75
2022/04/01 07:36:37;;;;;;;0.90;0.90;;;;;;;1.35;93.64;94639.77;108115;1270;42687;-75
2022/04/01 07:39:08;;;;;;;0.80;0.70;;;;;;;1.39;93.33;94640.16;108080;1270;41200;-75
2022/04/01 07:41:39;;;;;;;1.00;0.80;;;;;;;1.43;93.46;94640.11;108117;1270;29424;-75
2022/04/01 07:44:10;;;;;;;0.90;0.90;;;;;;;1.44;92.87;94644.91;108131;1270;39612;-75
2022/04/01 07:46:41;;;;;;;1.80;1.10;;;;;;;1.42;92.81;94648.31;108030;1270;45071;-75
2022/04/01 07:49:12;;;;;;;1.00;0.90;;;;;;;1.48;93.00;94645.83;108081;1270;48824;-75
2022/04/01 07:51:44;;;;;;;1.80;1.00;;;;;;;1.62;92.88;94647.16;108134;1270;33425;-75
2022/04/01 07:54:16;;;;;;;1.10;0.90;;;;;;;1.80;93.02;94653.17;108092;1270;30071;-76
2022/04/01 07:56:47;;;;;;;0.70;0.70;;;;;;;1.98;92.75;94658.59;108089;1270;45752;-76
2022/04/01 07:59:21;;;;;;;1.80;1.40;;;;;;;2.12;92.36;94662.94;108115;1269;44908;-76
2022/04/01 08:01:52;;;;;;;0.80;0.80;;;;;;;2.22;92.10;94664.17;108179;1270;34000;-76
2022/04/01 08:04:23;;;;;;;2.10;1.50;;;;;;;2.26;91.64;94663.02;107970;1271;34126;-76
2022/04/01 08:06:54;;;;;;;2.20;1.70;;;;;;;2.26;91.12;94663.21;108092;1270;42754;-76
2022/04/01 08:09:25;;;;;;;1.70;1.60;;;;;;;2.25;90.87;94657.84;107981;1270;32354;-76
2022/04/01 08:11:57;;;;;;;1.50;1.40;;;;;;;2.17;90.60;94664.44;108075;1270;44638;-76
2022/04/01 08:14:28;;;;;;;1.30;1.10;;;;;;;2.09;90.43;94663.48;108045;1270;42246;-76
2022/04/01 08:16:59;;;;;;;2.40;1.40;;;;;;;2.05;90.53;94663.36;108110;1270;30730;-76
2022/04/01 08:19:30;;;;;;;1.40;1.20;;;;;;;2.07;90.70;94662.56;108088;1270;34474;-76
2022/04/01 08:22:01;;;;;;;1.30;1.20;;;;;;;1.96;90.26;94662.01;108101;1270;34443;-76
2022/04/01 08:24:32;;;;;;;1.20;1.00;;;;;;;1.90;90.40;94666.53;108094;1270;33501;-76
2022/04/01 08:27:03;;;;;;;1.80;1.50;;;;;;;1.89;90.31;94669.90;108061;1270;48434;-76
2022/04/01 08:29:36;;;;;;;1.50;1.10;;;;;;;1.90;90.23;94668.27;108093;1270;39303;-76
2022/04/01 08:32:08;;;;;;;1.30;1.20;;;;;;;1.89;90.35;94665.56;108078;1270;38291;-76
2022/04/01 08:34:39;;;;;;;1.90;1.20;;;;;;;1.90;90.15;94670.25;108220;1270;33324;-76
2022/04/01 08:37:10;;;;;;;1.30;1.10;;;;;;;1.91;89.98;94671.08;108073;1270;34903;-76
2022/04/01 08:39:43;;;;;;;1.50;1.10;;;;;;;1.97;90.16;94670.41;108150;1270;31368;-76
2022/04/01 08:42:15;;;;;;;1.40;1.10;;;;;;;2.06;90.30;94667.02;108073;1270;50359;-76
2022/04/01 08:44:49;;;;;;;1.30;1.00;;;;;;;2.13;90.10;94669.22;108080;1270;46485;-76
2022/04/01 08:47:20;;;;;;;1.00;0.90;;;;;;;2.15;89.78;94669.41;108123;1270;31745;-76
2022/04/01 08:49:54;;;;;;;1.50;1.30;;;;;;;2.19;89.65;94669.58;107987;1270;71412;-76
2022/04/01 08:52:26;;;;;;;1.20;1.10;;;;;;;2.28;89.86;94673.86;108055;1270;45806;-76
2022/04/01 08:55:02;;;;;;;1.90;1.40;;;;;;;2.33;89.55;94675.65;108090;1270;39283;-76
2022/04/01 08:57:38;;;;;;;1.80;1.60;;;;;;;2.37;89.25;94673.52;108100;1270;40037;-76
2022/04/01 09:00:36;;;;;;;1.60;1.50;;;;;;;2.40;89.06;94674.92;108136;1270;31825;-76
2022/04/01 09:03:10;;;;;;;1.40;1.30;;;;;;;2.44;89.05;94675.84;108148;1270;29997;-76
2022/04/01 09:05:46;;;;;;;1.60;1.30;;;;;;;2.47;89.08;94676.48;108035;1271;28552;-76
2022/04/01 09:08:23;;;;;;;1.80;1.60;;;;;;;2.54;88.98;94679.05;108112;1270;41259;-76
2022/04/01 09:11:01;;;;;;;2.00;1.70;;;;;;;2.54;88.66;94677.36;107864;1273;42314;-76
2022/04/01 09:13:34;;;;;;;1.80;1.60;;;;;;;2.49;88.34;94678.66;108120;1270;45995;-77
2022/04/01 09:16:06;;;;;;;2.20;1.60;;;;;;;2.49;88.53;94678.14;108104;1270;46732;-76
2022/04/01 09:18:39;;;;;;;1.50;1.40;;;;;;;2.45;88.22;94673.89;108069;1270;44709;-76
2022/04/01 09:21:12;;;;;;;2.10;1.60;;;;;;;2.35;88.02;94675.94;107964;1273;59217;-76
2022/04/01 09:23:49;;;;;;;1.70;1.50;;;;;;;2.33;88.05;94673.77;108135;1269;53995;-76
2022/04/01 09:26:23;;;;;;;1.50;1.40;;;;;;;2.36;88.12;94677.34;108022;1270;41814;-76
2022/04/01 09:28:54;;;;;;;1.70;1.60;;;;;;;2.30;87.93;94681.84;108104;1270;41414;-76
2022/04/01 09:31:26;;;;;;;2.20;1.70;;;;;;;2.25;87.82;94680.27;108057;1268;43043;-76
2022/04/01 09:33:56;;;;;;;2.50;2.10;;;;;;;2.24;87.97;94677.34;108208;1270;30139;-75
2022/04/01 09:36:33;;;;;;;2.50;2.10;;;;;;;2.19;87.89;94676.34;108094;1270;43559;-76
2022/04/01 09:39:07;;;;;;;2.50;2.10;;;;;;;2.17;87.94;94675.88;108067;1270;41793;-76
2022/04/01 09:41:42;;;;;;;2.30;2.10;;;;;;;2.16;87.96;94673.21;108154;1270;36634;-76
2022/04/01 09:44:15;;;;;;;2.80;2.50;;;;;;;2.08;87.96;94675.51;108063;1270;51757;-75
2022/04/01 09:46:48;;;;;;;3.50;2.40;;;;;;;2.07;87.93;94673.80;108003;1271;40697;-76
2022/04/01 09:49:34;;;;;;;2.20;2.00;;;;;;;2.07;87.76;94673.95;108084;1270;35808;-75
2022/04/01 09:52:07;;;;;;;2.20;2.00;;;;;;;2.11;87.93;94669.70;108122;1270;41881;-75
2022/04/01 09:54:45;;;;;;;2.60;2.20;;;;;;;2.15;87.82;94670.51;108009;1270;37979;-75
2022/04/01 09:57:17;;;;;;;3.00;2.40;;;;;;;2.21;87.96;94670.35;108092;1270;45387;-75
2022/04/01 09:59:50;;;;;;;4.20;2.50;;;;;;;2.26;87.78;94674.30;108021;1270;38443;-75
2022/04/01 10:02:22;;;;;;;2.40;2.20;;;;;;;2.31;87.66;94675.67;108085;1270;42929;-76
2022/04/01 10:04:54;;;;;;;2.80;2.30;;;;;;;2.31;87.53;94677.02;108032;1270;33033;-75
2022/04/01 10:07:30;;;;;;;2.80;2.50;;;;;;;2.36;87.62;94677.77;108106;1270;40738;-76
2022/04/01 10:10:02;;;;;;;3.00;2.50;;;;;;;2.49;87.78;94678.66;108099;1270;37017;-76
2022/04/01 10:12:42;;;;;;;2.70;2.30;;;;;;;2.64;87.74;94677.70;108138;1270;32841;-75
2022/04/01 10:15:15;;;;;;;2.80;2.50;;;;;;;2.74;87.46;94678.39;108176;1270;38044;-75
2022/04/01 10:17:46;;;;;;;2.70;2.10;;;;;;;2.72;87.03;94681.71;108029;1271;33623;-75
2022/04/01 10:20:22;;;;;;;2.10;1.80;;;;;;;2.71;86.85;94684.77;108103;1270;40845;-75
2022/04/01 10:22:54;;;;;;;2.10;1.90;;;;;;;2.71;86.46;94684.04;108122;1270;40667;-75
2022/04/01 10:25:32;;;;;;;2.40;2.10;;;;;;;2.73;86.45;94682.14;108109;1270;48285;-75
2022/04/01 10:28:04;;;;;;;3.20;2.20;;;;;;;2.76;86.51;94681.83;108116;1270;41666;-75
2022/04/01 10:30:36;;;;;;;2.70;2.30;;;;;;;2.88;86.54;94685.86;108046;1270;38216;-75
2022/04/01 10:33:09;;;;;;;2.40;2.20;;;;;;;2.98;86.63;94685.55;108058;1269;41620;-75
2022/04/01 10:35:40;;;;;;;3.00;2.30;;;;;;;3.04;86.16;94688.09;108090;1269;41067;-74
2022/04/01 10:38:20;;;;;;;2.70;2.00;;;;;;;3.08;85.92;94691.58;108157;1270;35253;-74
2022/04/01 10:40:53;;;;;;;2.80;2.40;;;;;;;3.15;85.71;94693.39;108170;1270;46671;-74
2022/04/01 10:43:28;;;;;;;3.30;2.70;;;;;;;3.22;85.49;94694.25;108086;1270;45535;-74
2022/04/01 10:46:06;;;;;;;2.20;1.90;;;;;;;3.34;85.56;94692.08;108005;1270;43627;-74
2022/04/01 10:51:42;;;;;;;2.40;2.10;;;;;;;3.65;85.25;94696.12;108063;1270;45819;-74
2022/04/01 10:54:42;;;;;;;1.80;1.70;;;;;;;3.74;84.82;94695.05;108172;1270;32049;-74
2022/04/01 10:57:15;;;;;;;;;;;;;;;3.78;84.05;94696.36;108218;1267;31674;-74
2022/04/01 10:59:47;;;;;;;2.50;2.20;;;;;;;3.72;83.52;94700.59;108056;1270;42790;-74
2022/04/01 11:02:21;;;;;;;2.40;2.10;;;;;;;3.68;83.37;94701.07;108151;1270;32755;-74
2022/04/01 11:04:53;;;;;;;2.10;1.70;;;;;;;3.64;83.23;94706.18;107988;1270;40414;-74
2022/04/01 11:07:36;;;;;;;2.30;2.00;;;;;;;3.59;83.27;94710.02;108072;1270;39852;-74
2022/04/01 11:10:09;;;;;;;2.50;1.90;;;;;;;3.55;83.24;94708.87;108102;1270;34030;-74
2022/04/01 11:12:50;;;;;;;2.40;2.20;;;;;;;3.35;82.93;94711.44;108121;1270;39227;-74
2022/04/01 11:15:30;;;;;;;2.20;1.80;;;;;;;3.24;83.23;94709.15;108103;1270;34889;-74
2022/04/01 11:18:18;;;;;;;2.70;2.00;;;;;;;3.26;83.18;94708.11;108131;1270;28013;-74
2022/04/01 11:20:59;;;;;;;4.10;2.50;;;;;;;3.22;83.26;94715.10;108076;1270;42276;-74
2022/04/01 11:23:29;;;;;;;2.70;2.10;;;;;;;3.23;83.55;94714.98;108080;1270;49556;-74
2022/04/01 11:26:00;;;;;;;2.50;2.00;;;;;;;3.29;83.61;94715.80;108085;1270;44353;-74
2022/04/01 11:28:39;;;;;;;2.40;1.90;;;;;;;3.25;83.31;94719.63;107969;1270;42724;-74
2022/04/01 11:31:16;;;;;;;2.00;1.70;;;;;;;3.12;82.92;94718.81;108153;1270;41371;-74
2022/04/01 11:34:02;;;;;;;2.30;2.10;;;;;;;2.99;82.82;94716.80;107991;1270;41304;-75
2022/04/01 11:36:33;;;;;;;3.00;2.30;;;;;;;2.96;82.96;94720.39;108035;1270;42178;-74
2022/04/01 11:39:09;;;;;;;2.90;2.20;;;;;;;2.97;83.13;94716.23;108089;1270;33010;-74
2022/04/01 11:41:54;;;;;;;2.50;2.10;;;;;;;2.90;82.91;94720.11;108192;1269;32932;-74
2022/04/01 11:44:25;;;;;;;2.20;1.90;;;;;;;2.90;83.14;94715.87;108089;1270;44921;-74
2022/04/01 11:46:58;;;;;;;2.10;1.90;;;;;;;2.94;83.27;94719.65;108073;1270;43120;-74
2022/04/01 11:49:32;;;;;;;2.20;1.90;;;;;;;2.94;83.20;94721.95;108098;1270;34782;-74
2022/04/01 11:52:04;;;;;;;2.90;2.20;;;;;;;2.90;82.93;94721.52;108120;1270;31989;-74
2022/04/01 11:54:35;;;;;;;3.10;1.90;;;;;;;2.87;83.27;94721.14;108093;1270;34445;-74
2022/04/01 11:57:11;;;;;;;2.20;2.00;;;;;;;2.98;83.41;94721.67;108096;1270;42731;-74
2022/04/01 11:59:42;;;;;;;2.70;2.50;;;;;;;3.07;83.47;94718.27;107947;1273;39586;-74
2022/04/01 12:02:14;;;;;;;3.40;2.70;;;;;;;3.21;83.44;94717.77;108144;1270;42408;-74
2022/04/01 12:04:50;;;;;;;3.10;2.40;;;;;;;3.23;82.98;94716.14;107956;1271;43819;-75
2022/04/01 12:10:22;;;;;;;2.90;2.60;;;;;;;3.15;82.81;94725.08;108088;1270;32318;-74
2022/04/01 12:12:59;;;;;;;3.30;2.60;;;;;;;3.14;82.73;94724.04;108115;1270;45910;-74
2022/04/01 12:15:36;;;;;;;3.60;2.70;;;;;;;3.09;82.62;94722.65;108051;1270;44978;-74